Time;durP1;ratioP1;P1;durP2;ratioP2;P2;SDS_P1;SDS_P2;PMS_P1;PMS_P2;Temp;Humidity;BMP_temperature;BMP_pressure;BME280_temperature;BME280_humidity;BME280_pressure;Samples;Min_cycle;Max_cycle;Signal;HPM_P1;HPM_P2
2023/04/20 00:00:49;;;;;;;5.50;3.43;;;;;;;;;;5061539;28;20211;-61
2023/04/20 00:03:20;;;;;;;4.43;4.00;;;;;;;;;;5061179;28;20234;-60
2023/04/20 00:05:49;;;;;;;3.97;3.67;;;;;;;;;;5061041;28;20270;-60
2023/04/20 00:08:17;;;;;;;4.80;3.40;;;;;;;;;;5061165;28;20210;-61
2023/04/20 00:10:46;;;;;;;4.20;3.63;;;;;;;;;;5061303;28;20203;-60
2023/04/20 00:13:14;;;;;;;4.80;3.43;;;;;;;;;;5060878;28;20207;-61
2023/04/20 00:15:42;;;;;;;4.03;3.60;;;;;;;;;;5061051;28;20223;-60
2023/04/20 00:18:10;;;;;;;3.20;2.90;;;;;;;;;;5060693;28;20663;-61
2023/04/20 00:20:38;;;;;;;5.40;3.20;;;;;;;;;;5060957;28;20644;-61
2023/04/20 00:23:07;;;;;;;3.77;3.47;;;;;;;;;;5060832;28;20213;-61
2023/04/20 00:25:35;;;;;;;4.27;3.83;;;;;;;;;;5060888;28;20231;-60
2023/04/20 00:28:04;;;;;;;5.07;3.80;;;;;;;;;;5060841;28;20213;-61
2023/04/20 00:30:32;;;;;;;4.87;3.37;;;;;;;;;;5061093;28;20217;-60
2023/04/20 00:33:00;;;;;;;4.40;4.00;;;;;;;;;;5060636;28;20245;-60
2023/04/20 00:35:29;;;;;;;4.07;3.23;;;;;;;;;;5060607;28;20666;-61
2023/04/20 00:37:57;;;;;;;3.60;3.30;;;;;;;;;;5060865;28;20207;-60
2023/04/20 00:40:25;;;;;;;4.00;3.57;;;;;;;;;;5060894;28;20211;-60
2023/04/20 00:42:53;;;;;;;4.00;3.57;;;;;;;;;;5060314;28;20657;-60
2023/04/20 00:45:22;;;;;;;5.43;3.87;;;;;;;;;;5060348;28;20231;-60
2023/04/20 00:47:50;;;;;;;4.70;3.53;;;;;;;;;;5060409;28;20210;-61
2023/04/20 00:50:18;;;;;;;4.23;3.87;;;;;;;;;;5060362;28;20689;-60
2023/04/20 00:52:46;;;;;;;4.20;3.80;;;;;;;;;;5058323;28;20207;-60
2023/04/20 00:55:14;;;;;;;4.53;3.83;;;;;;;;;;5060169;28;20233;-62
2023/04/20 00:57:43;;;;;;;5.47;4.50;;;;;;;;;;5060191;28;20214;-61
2023/04/20 01:00:11;;;;;;;4.90;3.93;;;;;;;;;;5060308;28;20207;-60
2023/04/20 01:02:41;;;;;;;3.67;3.37;;;;;;;;;;5060252;28;20211;-61
2023/04/20 01:05:09;;;;;;;4.50;3.40;;;;;;;;;;5060133;28;20239;-60
2023/04/20 01:07:37;;;;;;;5.47;4.30;;;;;;;;;;5060394;28;20211;-61
2023/04/20 01:10:06;;;;;;;4.73;3.97;;;;;;;;;;5059952;28;20266;-62
2023/04/20 01:12:34;;;;;;;4.47;3.93;;;;;;;;;;5060036;28;20207;-62
2023/04/20 01:15:02;;;;;;;6.93;4.13;;;;;;;;;;5059589;28;20715;-63
2023/04/20 01:17:30;;;;;;;3.97;3.40;;;;;;;;;;5059905;28;20213;-63
2023/04/20 01:20:00;;;;;;;4.70;3.70;;;;;;;;;;5060073;28;20211;-61
2023/04/20 01:22:29;;;;;;;5.60;4.17;;;;;;;;;;5059847;28;20658;-61
2023/04/20 01:24:57;;;;;;;4.40;4.00;;;;;;;;;;5059618;28;20206;-61
2023/04/20 01:27:25;;;;;;;6.37;4.20;;;;;;;;;;5059772;28;20230;-62
2023/04/20 01:29:53;;;;;;;5.23;3.97;;;;;;;;;;5059391;28;20238;-63
2023/04/20 01:32:21;;;;;;;6.60;4.37;;;;;;;;;;5059586;28;20599;-63
2023/04/20 01:34:49;;;;;;;4.80;4.30;;;;;;;;;;5059752;28;20211;-63
2023/04/20 01:37:17;;;;;;;5.77;4.27;;;;;;;;;;5059550;28;20741;-63
2023/04/20 01:39:46;;;;;;;6.00;4.17;;;;;;;;;;5059744;28;20202;-63
2023/04/20 01:42:14;;;;;;;4.80;4.33;;;;;;;;;;5059778;28;20257;-62
2023/04/20 01:44:42;;;;;;;4.93;3.80;;;;;;;;;;5059115;28;20214;-62
2023/04/20 01:47:10;;;;;;;6.20;4.60;;;;;;;;;;5059484;28;20258;-63
2023/04/20 01:49:39;;;;;;;7.73;4.33;;;;;;;;;;5059474;28;20217;-61
2023/04/20 01:52:07;;;;;;;4.30;3.90;;;;;;;;;;5059373;28;20234;-60
2023/04/20 01:54:36;;;;;;;6.93;4.90;;;;;;;;;;5059480;28;20217;-60
2023/04/20 01:57:05;;;;;;;5.87;4.27;;;;;;;;;;5058999;28;20219;-62
2023/04/20 01:59:33;;;;;;;4.43;4.03;;;;;;;;;;5059052;28;20684;-61
2023/04/20 02:02:04;;;;;;;5.40;4.90;;;;;;;;;;5058974;28;20206;-62
2023/04/20 02:04:32;;;;;;;5.63;4.80;;;;;;;;;;5058327;28;20203;-63
2023/04/20 02:07:00;;;;;;;6.47;5.20;;;;;;;;;;5058739;28;20755;-63
2023/04/20 02:09:28;;;;;;;4.83;4.33;;;;;;;;;;5059203;28;20246;-63
2023/04/20 02:11:56;;;;;;;6.80;4.60;;;;;;;;;;5059048;28;20245;-63
2023/04/20 02:14:26;;;;;;;6.23;4.80;;;;;;;;;;5058634;28;20218;-63
2023/04/20 02:16:54;;;;;;;6.00;4.43;;;;;;;;;;5058932;28;20225;-63
2023/04/20 02:19:23;;;;;;;6.67;4.87;;;;;;;;;;5058561;28;20277;-62
2023/04/20 02:21:51;;;;;;;4.67;4.23;;;;;;;;;;5058666;28;20210;-62
2023/04/20 02:24:18;;;;;;;6.57;5.00;;;;;;;;;;5058641;28;20666;-62
2023/04/20 02:26:46;;;;;;;5.50;4.90;;;;;;;;;;5058299;28;20348;-63
2023/04/20 02:29:16;;;;;;;5.83;5.23;;;;;;;;;;5058585;28;20203;-63
2023/04/20 02:31:45;;;;;;;5.93;5.20;;;;;;;;;;5058724;28;20210;-63
2023/04/20 02:34:13;;;;;;;5.13;4.30;;;;;;;;;;5058392;28;20735;-62
2023/04/20 02:36:41;;;;;;;6.80;5.03;;;;;;;;;;5058501;28;20227;-62
2023/04/20 02:39:09;;;;;;;6.63;5.63;;;;;;;;;;5058591;28;20206;-62
2023/04/20 02:41:37;;;;;;;8.40;5.13;;;;;;;;;;5058302;28;20203;-62
2023/04/20 02:44:05;;;;;;;5.30;4.80;;;;;;;;;;5058056;28;20203;-62
2023/04/20 02:46:33;;;;;;;6.27;5.30;;;;;;;;;;5058072;28;20638;-63
2023/04/20 02:49:03;;;;;;;6.53;5.50;;;;;;;;;;5058324;28;20207;-62
2023/04/20 02:51:31;;;;;;;6.90;6.03;;;;;;;;;;5056842;28;20202;-62
2023/04/20 02:53:59;;;;;;;7.40;5.70;;;;;;;;;;5059485;28;20242;-63
2023/04/20 02:56:27;;;;;;;6.80;5.47;;;;;;;;;;5057975;28;20225;-62
2023/04/20 02:58:55;;;;;;;7.30;5.30;;;;;;;;;;5058056;28;20241;-62
2023/04/20 03:01:23;;;;;;;6.37;5.40;;;;;;;;;;5057895;28;20581;-62
2023/04/20 03:03:51;;;;;;;7.37;5.57;;;;;;;;;;5058085;28;20212;-62
2023/04/20 03:06:21;;;;;;;9.00;5.80;;;;;;;;;;5057823;28;20277;-62
2023/04/20 03:08:49;;;;;;;6.90;5.43;;;;;;;;;;5057931;28;20658;-63
2023/04/20 03:11:17;;;;;;;7.07;5.37;;;;;;;;;;5058049;28;20207;-62
2023/04/20 03:13:45;;;;;;;7.07;6.00;;;;;;;;;;5057774;28;20749;-63
2023/04/20 03:16:13;;;;;;;6.43;5.53;;;;;;;;;;5057273;28;20227;-62
2023/04/20 03:18:41;;;;;;;7.87;5.83;;;;;;;;;;5057419;28;20763;-62
2023/04/20 03:21:09;;;;;;;7.73;5.67;;;;;;;;;;5057863;28;20214;-62
2023/04/20 03:23:38;;;;;;;8.63;6.70;;;;;;;;;;5057704;28;20650;-62
2023/04/20 03:26:06;;;;;;;8.00;5.83;;;;;;;;;;5057594;28;20562;-62
2023/04/20 03:28:34;;;;;;;8.37;6.53;;;;;;;;;;5057404;28;20230;-62
2023/04/20 03:31:02;;;;;;;7.87;6.17;;;;;;;;;;5057743;28;20241;-62
2023/04/20 03:33:30;;;;;;;7.13;6.17;;;;;;;;;;5057534;28;20207;-62
2023/04/20 03:35:58;;;;;;;8.00;6.80;;;;;;;;;;5057679;28;20233;-62
2023/04/20 03:38:26;;;;;;;7.67;6.47;;;;;;;;;;5057486;28;20203;-62
2023/04/20 03:40:55;;;;;;;9.23;6.67;;;;;;;;;;5057378;28;20628;-61
2023/04/20 03:43:23;;;;;;;8.67;6.57;;;;;;;;;;5057275;28;20206;-62
2023/04/20 03:45:51;;;;;;;7.20;6.30;;;;;;;;;;5057823;28;20237;-61
2023/04/20 03:48:19;;;;;;;7.40;6.30;;;;;;;;;;5057350;28;20227;-62
2023/04/20 03:50:47;;;;;;;9.80;6.57;;;;;;;;;;5057373;28;20213;-62
2023/04/20 03:53:15;;;;;;;13.20;7.00;;;;;;;;;;5057360;28;20234;-62
2023/04/20 03:55:43;;;;;;;10.10;7.63;;;;;;;;;;5057248;28;20693;-62
2023/04/20 03:58:12;;;;;;;9.33;6.43;;;;;;;;;;5057428;28;20203;-62
2023/04/20 04:00:40;;;;;;;8.60;6.47;;;;;;;;;;5057248;28;20293;-62
2023/04/20 04:03:08;;;;;;;8.83;6.87;;;;;;;;;;5057178;28;20206;-62
2023/04/20 04:05:37;;;;;;;9.00;6.87;;;;;;;;;;5057183;28;20227;-62
2023/04/20 04:08:05;;;;;;;8.73;6.80;;;;;;;;;;5057485;28;20266;-61
2023/04/20 04:10:33;;;;;;;9.30;7.63;;;;;;;;;;5057119;28;20245;-62
2023/04/20 04:13:01;;;;;;;9.97;7.93;;;;;;;;;;5056982;28;20613;-62
2023/04/20 04:15:31;;;;;;;9.17;7.50;;;;;;;;;;5057085;28;20231;-62
2023/04/20 04:17:59;;;;;;;10.17;7.33;;;;;;;;;;5057163;28;20243;-61
2023/04/20 04:20:27;;;;;;;9.03;7.33;;;;;;;;;;5057153;28;20203;-61
2023/04/20 04:22:56;;;;;;;11.77;7.87;;;;;;;;;;5057375;28;20238;-62
2023/04/20 04:25:24;;;;;;;9.83;7.50;;;;;;;;;;5057215;28;20231;-62
2023/04/20 04:27:53;;;;;;;10.03;7.07;;;;;;;;;;5057476;28;20231;-62
2023/04/20 04:30:21;;;;;;;9.03;6.97;;;;;;;;;;5061059;28;20207;-61
2023/04/20 04:32:50;;;;;;;9.90;7.03;;;;;;;;;;5060879;28;20213;-61
2023/04/20 04:35:18;;;;;;;9.17;7.20;;;;;;;;;;5060917;28;20266;-61
2023/04/20 04:37:46;;;;;;;8.80;7.17;;;;;;;;;;5060649;28;20674;-62
2023/04/20 04:40:15;;;;;;;11.00;6.83;;;;;;;;;;5060819;28;20253;-62
2023/04/20 04:42:44;;;;;;;9.77;7.17;;;;;;;;;;5060420;28;20217;-62
2023/04/20 04:45:12;;;;;;;9.30;7.20;;;;;;;;;;5063035;28;20232;-62
2023/04/20 04:47:41;;;;;;;9.17;7.00;;;;;;;;;;5054964;28;20218;-61
2023/04/20 04:50:11;;;;;;;10.90;6.23;;;;;;;;;;5060440;28;20698;-62
2023/04/20 04:52:39;;;;;;;10.23;7.77;;;;;;;;;;5048014;28;20207;-62
2023/04/20 04:55:08;;;;;;;12.03;7.57;;;;;;;;;;5040496;28;20242;-62
2023/04/20 04:57:37;;;;;;;7.67;6.67;;;;;;;;;;5047710;28;20638;-62
2023/04/20 05:00:08;;;;;;;10.87;6.30;;;;;;;;;;5056247;28;20674;-62
2023/04/20 05:02:36;;;;;;;10.40;6.80;;;;;;;;;;5060098;28;20270;-61
2023/04/20 05:05:05;;;;;;;11.43;6.47;;;;;;;;;;5060046;28;20767;-62
2023/04/20 05:07:38;;;;;;;7.97;6.17;;;;;;;;;;5059970;28;20226;-62
2023/04/20 05:10:07;;;;;;;9.43;6.13;;;;;;;;;;5060427;28;20226;-62
2023/04/20 05:12:35;;;;;;;9.07;6.00;;;;;;;;;;5060041;28;20211;-62
2023/04/20 05:15:04;;;;;;;7.83;6.17;;;;;;;;;;5059414;28;20689;-64
2023/04/20 05:17:32;;;;;;;8.43;6.17;;;;;;;;;;5057943;28;20213;-64
2023/04/20 05:20:00;;;;;;;6.47;5.07;;;;;;;;;;5058281;28;20214;-64
2023/04/20 05:22:28;;;;;;;6.87;5.37;;;;;;;;;;5058082;28;20206;-63
2023/04/20 05:24:57;;;;;;;10.73;9.17;;;;;;;;;;5057670;28;20241;-64
2023/04/20 05:27:25;;;;;;;9.97;6.20;;;;;;;;;;5055551;28;20207;-64
2023/04/20 05:29:53;;;;;;;7.90;6.03;;;;;;;;;;5047019;28;20207;-64
2023/04/20 05:32:21;;;;;;;6.13;5.53;;;;;;;;;;5044855;28;20582;-61
2023/04/20 05:34:49;;;;;;;9.47;4.97;;;;;;;;;;5049503;28;20214;-62
2023/04/20 05:37:17;;;;;;;9.33;5.17;;;;;;;;;;5047601;28;20204;-61
2023/04/20 05:39:45;;;;;;;6.47;5.20;;;;;;;;;;5048287;28;20634;-61
2023/04/20 05:42:14;;;;;;;5.83;5.23;;;;;;;;;;5049340;28;20213;-60
2023/04/20 05:44:42;;;;;;;7.17;5.00;;;;;;;;;;5050032;28;20194;-60
2023/04/20 05:47:10;;;;;;;6.30;4.53;;;;;;;;;;5048954;28;20270;-61
2023/04/20 05:49:39;;;;;;;7.10;5.07;;;;;;;;;;5048229;28;20226;-60
2023/04/20 05:52:07;;;;;;;7.47;4.80;;;;;;;;;;5049389;28;20235;-61
2023/04/20 05:54:35;;;;;;;5.80;4.43;;;;;;;;;;5049151;28;20235;-60
2023/04/20 05:57:04;;;;;;;6.80;5.00;;;;;;;;;;5049785;28;20731;-60
2023/04/20 05:59:33;;;;;;;4.70;3.87;;;;;;;;;;5048808;28;20202;-60
2023/04/20 06:02:01;;;;;;;7.00;4.40;;;;;;;;;;5047597;28;20333;-60
2023/04/20 06:04:30;;;;;;;6.27;4.40;;;;;;;;;;5049045;28;20727;-60
2023/04/20 06:06:59;;;;;;;4.40;4.00;;;;;;;;;;5049494;28;20223;-60
2023/04/20 06:09:26;;;;;;;5.80;4.67;;;;;;;;;;5047819;28;20223;-60
2023/04/20 06:11:54;;;;;;;5.73;4.40;;;;;;;;;;5056625;28;20633;-60
2023/04/20 06:14:22;;;;;;;6.40;3.90;;;;;;;;;;5038726;28;20704;-60
2023/04/20 06:16:52;;;;;;;5.53;4.30;;;;;;;;;;5038736;28;20664;-61
2023/04/20 06:19:20;;;;;;;6.60;4.00;;;;;;;;;;5038624;28;20232;-61
2023/04/20 06:21:48;;;;;;;7.17;3.90;;;;;;;;;;5038933;28;20291;-61
2023/04/20 06:24:16;;;;;;;4.70;3.37;;;;;;;;;;5038932;28;20208;-61
2023/04/20 06:26:44;;;;;;;5.77;3.47;;;;;;;;;;5048874;28;20218;-61
2023/04/20 06:29:12;;;;;;;3.83;3.43;;;;;;;;;;5052688;28;20257;-61
2023/04/20 06:31:40;;;;;;;4.63;3.50;;;;;;;;;;5051248;28;20230;-61
2023/04/20 06:34:09;;;;;;;5.43;3.40;;;;;;;;;;5055525;28;20199;-61
2023/04/20 06:36:37;;;;;;;3.70;3.20;;;;;;;;;;5050086;28;20596;-60
2023/04/20 06:39:05;;;;;;;4.03;3.30;;;;;;;;;;5058352;28;20199;-62
2023/04/20 06:41:33;;;;;;;4.40;3.27;;;;;;;;;;5058254;28;20238;-62
2023/04/20 06:44:01;;;;;;;5.30;3.87;;;;;;;;;;5058067;28;20213;-62
2023/04/20 06:46:32;;;;;;;4.00;3.57;;;;;;;;;;5057910;28;20261;-62
2023/04/20 06:49:00;;;;;;;4.47;3.13;;;;;;;;;;5058162;28;20222;-62
2023/04/20 06:51:31;;;;;;;3.37;2.90;;;;;;;;;;5058260;28;20230;-62
2023/04/20 06:53:59;;;;;;;5.20;2.97;;;;;;;;;;5058198;28;20654;-62
2023/04/20 06:56:27;;;;;;;5.60;3.53;;;;;;;;;;5058019;28;20231;-62
2023/04/20 06:58:55;;;;;;;5.53;3.40;;;;;;;;;;5058728;28;20282;-62
2023/04/20 07:01:23;;;;;;;4.23;3.30;;;;;;;;;;5050855;28;20541;-62
2023/04/20 07:03:51;;;;;;;3.40;2.90;;;;;;;;;;5055529;28;20252;-63
2023/04/20 07:06:19;;;;;;;3.57;2.87;;;;;;;;;;5056234;28;20218;-62
2023/04/20 07:08:49;;;;;;;3.50;3.00;;;;;;;;;;5052984;28;20254;-62
2023/04/20 07:11:17;;;;;;;3.73;3.07;;;;;;;;;;5055351;28;20209;-62
2023/04/20 07:13:45;;;;;;;3.47;3.17;;;;;;;;;;5055859;28;20203;-62
2023/04/20 07:16:13;;;;;;;5.00;3.20;;;;;;;;;;5057849;28;20260;-62
2023/04/20 07:18:41;;;;;;;2.83;2.57;;;;;;;;;;5057577;28;20246;-62
2023/04/20 07:21:09;;;;;;;3.73;3.00;;;;;;;;;;5057868;28;20215;-62
2023/04/20 07:23:37;;;;;;;3.30;2.83;;;;;;;;;;5057687;28;20638;-62
2023/04/20 07:26:06;;;;;;;3.87;3.00;;;;;;;;;;5057804;28;20273;-62
2023/04/20 07:28:34;;;;;;;4.43;2.57;;;;;;;;;;5057575;28;20217;-62
2023/04/20 07:31:02;;;;;;;5.63;3.23;;;;;;;;;;5057464;28;20294;-62
2023/04/20 07:33:30;;;;;;;8.33;3.00;;;;;;;;;;5057740;28;20213;-62
2023/04/20 07:35:59;;;;;;;3.50;2.90;;;;;;;;;;5054001;28;20231;-62
2023/04/20 07:38:27;;;;;;;4.23;3.10;;;;;;;;;;5054230;28;20202;-62
2023/04/20 07:40:55;;;;;;;3.63;3.33;;;;;;;;;;5056144;28;20210;-62
2023/04/20 07:43:25;;;;;;;3.20;2.90;;;;;;;;;;5056392;28;20199;-62
2023/04/20 07:45:53;;;;;;;3.37;2.60;;;;;;;;;;5052888;28;20310;-61
2023/04/20 07:48:21;;;;;;;5.27;2.70;;;;;;;;;;5053733;28;20211;-62
2023/04/20 07:50:49;;;;;;;5.10;3.00;;;;;;;;;;5054041;28;20280;-62
2023/04/20 07:53:17;;;;;;;6.70;3.33;;;;;;;;;;5055025;28;20227;-62
2023/04/20 07:55:45;;;;;;;4.17;2.93;;;;;;;;;;5049307;28;20269;-62
2023/04/20 07:58:16;;;;;;;3.60;2.33;;;;;;;;;;5053202;28;20248;-62
2023/04/20 08:00:47;;;;;;;3.27;2.90;;;;;;;;;;5055641;28;20225;-62
2023/04/20 08:03:15;;;;;;;3.97;2.90;;;;;;;;;;5056637;28;20285;-62
2023/04/20 08:05:44;;;;;;;3.33;2.40;;;;;;;;;;5057529;28;20737;-62
2023/04/20 08:08:12;;;;;;;4.00;2.50;;;;;;;;;;5058409;28;20237;-62
2023/04/20 08:10:40;;;;;;;5.73;3.10;;;;;;;;;;5054708;28;20223;-62
2023/04/20 08:13:08;;;;;;;4.33;2.80;;;;;;;;;;5057312;28;20561;-62
2023/04/20 08:15:36;;;;;;;3.43;2.93;;;;;;;;;;5058229;28;20225;-62
2023/04/20 08:18:05;;;;;;;3.83;3.10;;;;;;;;;;5054320;28;20261;-62
2023/04/20 08:20:33;;;;;;;3.47;3.00;;;;;;;;;;5060074;28;20198;-62
2023/04/20 08:23:01;;;;;;;3.77;2.60;;;;;;;;;;5057192;28;20195;-62
2023/04/20 08:25:31;;;;;;;10.20;3.30;;;;;;;;;;5055935;28;20287;-62
2023/04/20 08:27:59;;;;;;;5.67;3.07;;;;;;;;;;5058449;28;20224;-61
2023/04/20 08:30:27;;;;;;;3.27;2.67;;;;;;;;;;5057975;28;20218;-62
2023/04/20 08:32:55;;;;;;;3.73;2.57;;;;;;;;;;5055646;28;20203;-62
2023/04/20 08:35:25;;;;;;;4.70;2.50;;;;;;;;;;5059464;28;20272;-62
2023/04/20 08:37:53;;;;;;;3.90;2.40;;;;;;;;;;5058347;28;20211;-62
2023/04/20 08:40:23;;;;;;;2.70;2.30;;;;;;;;;;5060050;28;20658;-62
2023/04/20 08:42:51;;;;;;;4.23;2.50;;;;;;;;;;5058689;28;20233;-62
2023/04/20 08:45:19;;;;;;;3.23;2.23;;;;;;;;;;5056279;28;20219;-62
2023/04/20 08:47:47;;;;;;;3.97;2.83;;;;;;;;;;5056126;28;20204;-61
2023/04/20 08:50:16;;;;;;;3.73;2.60;;;;;;;;;;5056969;28;20230;-62
2023/04/20 08:52:45;;;;;;;4.43;2.73;;;;;;;;;;5058289;28;20199;-62
2023/04/20 08:55:15;;;;;;;2.73;2.50;;;;;;;;;;5054567;28;20241;-62
2023/04/20 08:57:43;;;;;;;3.23;2.60;;;;;;;;;;5054048;28;20199;-62
2023/04/20 09:00:12;;;;;;;4.83;2.73;;;;;;;;;;5055286;28;20658;-62
2023/04/20 09:02:48;;;;;;;2.90;2.30;;;;;;;;;;5051426;28;20651;-61
2023/04/20 09:05:24;;;;;;;3.53;2.63;;;;;;;;;;5059628;28;20689;-62
2023/04/20 09:07:54;;;;;;;4.47;2.80;;;;;;;;;;5056209;28;20229;-62
2023/04/20 09:10:24;;;;;;;5.80;2.80;;;;;;;;;;5053723;28;20257;-61
2023/04/20 09:12:52;;;;;;;2.80;2.60;;;;;;;;;;5050497;28;20237;-61
2023/04/20 09:15:26;;;;;;;3.57;2.37;;;;;;;;;;5050890;28;20576;-62
2023/04/20 09:17:55;;;;;;;3.10;2.70;;;;;;;;;;5056136;28;20230;-62
2023/04/20 09:20:30;;;;;;;3.63;2.53;;;;;;;;;;5057386;28;20195;-62
2023/04/20 09:23:10;;;;;;;3.17;2.60;;;;;;;;;;5053660;28;20226;-62
2023/04/20 09:25:39;;;;;;;3.10;2.80;;;;;;;;;;5059559;28;20250;-62
2023/04/20 09:28:07;;;;;;;4.47;2.90;;;;;;;;;;5054486;28;20222;-62
2023/04/20 09:30:39;;;;;;;3.30;2.80;;;;;;;;;;5058567;28;20698;-62
2023/04/20 09:33:09;;;;;;;4.83;3.07;;;;;;;;;;5052237;28;20199;-62
2023/04/20 09:35:39;;;;;;;3.53;2.70;;;;;;;;;;5050404;28;20249;-61
2023/04/20 09:38:08;;;;;;;4.90;3.60;;;;;;;;;;5052067;28;20199;-62
2023/04/20 09:40:36;;;;;;;5.97;3.10;;;;;;;;;;5052898;28;20575;-62
2023/04/20 09:43:07;;;;;;;3.97;3.13;;;;;;;;;;5051614;28;20217;-62
2023/04/20 09:45:35;;;;;;;4.13;3.47;;;;;;;;;;5056149;28;20216;-62
2023/04/20 09:48:05;;;;;;;4.13;3.50;;;;;;;;;;5051878;28;20685;-62
2023/04/20 09:50:36;;;;;;;4.30;3.00;;;;;;;;;;5056222;28;20586;-62
2023/04/20 09:53:18;;;;;;;4.90;3.13;;;;;;;;;;5058452;28;20209;-62
2023/04/20 09:55:47;;;;;;;4.63;3.43;;;;;;;;;;5054080;28;20231;-61
2023/04/20 09:58:17;;;;;;;3.83;3.43;;;;;;;;;;5050485;28;20210;-63
2023/04/20 10:00:45;;;;;;;5.87;3.27;;;;;;;;;;5053519;28;20238;-62
2023/04/20 10:03:16;;;;;;;3.80;3.33;;;;;;;;;;5056197;28;20275;-62
2023/04/20 10:05:45;;;;;;;6.40;3.87;;;;;;;;;;5072258;28;20713;-62
2023/04/20 10:08:13;;;;;;;5.60;4.33;;;;;;;;;;5051956;28;20203;-62
2023/04/20 10:10:46;;;;;;;7.67;4.67;;;;;;;;;;5051978;28;20250;-62
2023/04/20 10:13:14;;;;;;;7.57;5.60;;;;;;;;;;5056592;28;20209;-62
2023/04/20 10:15:42;;;;;;;6.97;4.90;;;;;;;;;;5052830;28;20334;-62
2023/04/20 10:18:17;;;;;;;8.57;5.27;;;;;;;;;;5051781;28;20747;-62
2023/04/20 10:20:46;;;;;;;8.00;4.83;;;;;;;;;;5057839;28;20202;-63
2023/04/20 10:23:15;;;;;;;5.67;4.60;;;;;;;;;;5053623;28;20202;-62
2023/04/20 10:25:44;;;;;;;8.80;5.20;;;;;;;;;;5057882;28;20227;-62
2023/04/20 10:28:13;;;;;;;8.47;4.90;;;;;;;;;;5052751;28;20200;-65
2023/04/20 10:30:49;;;;;;;15.33;4.60;;;;;;;;;;5055308;28;20215;-65
2023/04/20 10:33:18;;;;;;;9.20;3.87;;;;;;;;;;5051620;28;20267;-65
2023/04/20 10:35:47;;;;;;;6.30;4.47;;;;;;;;;;5043250;28;20255;-65
2023/04/20 10:38:15;;;;;;;4.83;4.23;;;;;;;;;;5042067;28;20225;-65
2023/04/20 10:40:43;;;;;;;4.90;4.40;;;;;;;;;;5039056;28;20227;-65
2023/04/20 10:43:22;;;;;;;7.53;3.73;;;;;;;;;;5053654;28;20723;-65
2023/04/20 10:45:50;;;;;;;6.67;4.57;;;;;;;;;;5056585;28;20638;-65
2023/04/20 10:48:18;;;;;;;8.97;4.70;;;;;;;;;;5057451;28;20209;-65
2023/04/20 10:50:46;;;;;;;6.43;5.27;;;;;;;;;;5052633;28;20223;-66
2023/04/20 10:53:20;;;;;;;6.70;5.03;;;;;;;;;;5055518;28;20199;-65
2023/04/20 10:55:57;;;;;;;64.40;37.00;;;;;;;;;;5055745;28;20239;-65
2023/04/20 10:58:27;;;;;;;14.43;8.93;;;;;;;;;;5056862;28;20198;-64
2023/04/20 11:00:58;;;;;;;7.47;5.13;;;;;;;;;;5054345;28;20253;-61
2023/04/20 11:03:27;;;;;;;6.33;4.70;;;;;;;;;;5047050;28;20223;-61
2023/04/20 11:05:59;;;;;;;6.37;4.47;;;;;;;;;;5037540;28;20366;-62
2023/04/20 11:08:39;;;;;;;4.60;4.17;;;;;;;;;;5056831;28;20209;-61
2023/04/20 11:11:17;;;;;;;6.07;4.20;;;;;;;;;;5057856;28;20226;-61
2023/04/20 11:13:47;;;;;;;5.10;4.23;;;;;;;;;;5051147;28;20230;-61
2023/04/20 11:16:16;;;;;;;5.80;4.13;;;;;;;;;;5057930;28;20277;-62
2023/04/20 11:18:52;;;;;;;8.60;5.20;;;;;;;;;;5043452;28;20237;-62
2023/04/20 11:21:20;;;;;;;8.93;4.57;;;;;;;;;;5057673;28;20237;-62
2023/04/20 11:23:48;;;;;;;5.77;4.60;;;;;;;;;;5058041;28;20697;-62
2023/04/20 11:26:16;;;;;;;6.00;4.80;;;;;;;;;;5054324;28;20253;-62
2023/04/20 11:28:52;;;;;;;5.17;4.63;;;;;;;;;;5051383;28;20218;-62
2023/04/20 11:31:23;;;;;;;11.03;4.70;;;;;;;;;;5047790;28;20218;-62
2023/04/20 11:33:51;;;;;;;6.03;4.47;;;;;;;;;;5045724;28;20662;-62
2023/04/20 11:36:20;;;;;;;6.73;4.63;;;;;;;;;;5052173;28;20225;-62
2023/04/20 11:38:48;;;;;;;8.73;5.03;;;;;;;;;;5056378;28;20761;-62
2023/04/20 11:41:17;;;;;;;8.20;4.87;;;;;;;;;;5057097;28;20253;-63
2023/04/20 11:43:45;;;;;;;6.70;5.20;;;;;;;;;;5048648;28;20212;-63
2023/04/20 11:46:15;;;;;;;6.93;5.63;;;;;;;;;;5053413;28;20221;-63
2023/04/20 11:48:44;;;;;;;5.93;5.13;;;;;;;;;;5049640;28;20272;-63
2023/04/20 11:51:12;;;;;;;6.77;5.47;;;;;;;;;;5042519;28;20274;-64
2023/04/20 11:53:40;;;;;;;7.33;4.93;;;;;;;;;;5045144;28;20707;-64
2023/04/20 11:56:08;;;;;;;5.97;5.17;;;;;;;;;;5053383;28;20229;-62
2023/04/20 11:58:37;;;;;;;5.93;5.33;;;;;;;;;;5056008;28;20203;-63
2023/04/20 12:01:05;;;;;;;6.47;4.70;;;;;;;;;;5053998;28;20201;-62
2023/04/20 12:03:35;;;;;;;5.50;5.00;;;;;;;;;;5050890;28;20199;-63
2023/04/20 12:06:04;;;;;;;7.30;5.77;;;;;;;;;;5051069;28;20272;-63
2023/04/20 12:08:32;;;;;;;7.93;6.10;;;;;;;;;;5055344;28;20195;-64
2023/04/20 12:11:00;;;;;;;5.57;5.03;;;;;;;;;;5050490;28;20287;-63
2023/04/20 12:13:28;;;;;;;6.40;4.90;;;;;;;;;;5055565;28;20206;-63
2023/04/20 12:15:56;;;;;;;7.17;5.53;;;;;;;;;;5055467;28;20215;-64
2023/04/20 12:18:24;;;;;;;6.97;5.83;;;;;;;;;;5049169;28;20227;-63
2023/04/20 12:20:53;;;;;;;7.23;6.20;;;;;;;;;;5054982;28;20230;-63
2023/04/20 12:23:21;;;;;;;6.97;5.60;;;;;;;;;;5044565;28;20234;-63
2023/04/20 12:25:50;;;;;;;7.13;6.00;;;;;;;;;;5056747;28;20348;-63
2023/04/20 12:28:18;;;;;;;7.13;5.30;;;;;;;;;;5056796;28;20199;-62
2023/04/20 12:30:46;;;;;;;6.03;5.17;;;;;;;;;;5053708;28;20666;-62
2023/04/20 12:33:14;;;;;;;5.53;4.93;;;;;;;;;;5053316;28;20254;-62
2023/04/20 12:35:43;;;;;;;7.60;5.33;;;;;;;;;;5050835;28;20222;-62
2023/04/20 12:38:13;;;;;;;6.13;5.50;;;;;;;;;;5050915;28;20215;-62
2023/04/20 12:40:41;;;;;;;5.97;5.17;;;;;;;;;;5051949;28;20261;-62
2023/04/20 12:43:09;;;;;;;9.23;6.07;;;;;;;;;;5052402;28;20199;-62
2023/04/20 12:45:37;;;;;;;7.77;5.43;;;;;;;;;;5055532;28;20223;-62
2023/04/20 12:48:05;;;;;;;6.17;5.57;;;;;;;;;;5048951;28;20199;-61
2023/04/20 12:50:33;;;;;;;8.23;5.40;;;;;;;;;;5059585;28;20203;-62
2023/04/20 12:53:01;;;;;;;7.67;5.50;;;;;;;;;;5051900;28;20283;-62
2023/04/20 12:55:31;;;;;;;6.80;5.20;;;;;;;;;;5056694;28;20221;-63
2023/04/20 12:57:59;;;;;;;6.83;5.53;;;;;;;;;;5052283;28;20282;-63
2023/04/20 13:00:27;;;;;;;6.00;5.27;;;;;;;;;;5056626;28;20200;-62
2023/04/20 13:02:55;;;;;;;5.40;4.90;;;;;;;;;;5055294;28;20286;-63
2023/04/20 13:05:23;;;;;;;5.80;5.30;;;;;;;;;;5051369;28;20224;-60
2023/04/20 13:07:51;;;;;;;5.20;4.70;;;;;;;;;;5039698;28;20220;-61
2023/04/20 13:10:19;;;;;;;5.07;4.00;;;;;;;;;;5040122;28;20244;-63
2023/04/20 13:12:50;;;;;;;8.57;5.00;;;;;;;;;;5039842;28;20232;-62
2023/04/20 13:15:19;;;;;;;5.70;4.83;;;;;;;;;;5043432;28;20270;-61
2023/04/20 13:18:05;;;;;;;6.47;5.33;;;;;;;;;;5046688;28;20272;-62
2023/04/20 13:20:33;;;;;;;5.20;4.70;;;;;;;;;;5062197;28;20289;-63
2023/04/20 13:23:02;;;;;;;7.00;4.73;;;;;;;;;;5046968;28;20207;-61
2023/04/20 13:25:32;;;;;;;5.40;4.90;;;;;;;;;;5059080;28;20226;-61
2023/04/20 13:28:01;;;;;;;8.00;5.30;;;;;;;;;;5059435;28;20306;-61
2023/04/20 13:30:29;;;;;;;4.43;4.07;;;;;;;;;;5059287;28;20234;-61
2023/04/20 13:32:57;;;;;;;5.60;4.67;;;;;;;;;;5057426;28;20764;-63
2023/04/20 13:35:26;;;;;;;6.60;5.07;;;;;;;;;;5053742;28;20689;-66
2023/04/20 13:37:54;;;;;;;5.47;4.77;;;;;;;;;;5056258;28;20199;-67
2023/04/20 13:40:22;;;;;;;6.40;5.67;;;;;;;;;;5059041;28;20657;-66
2023/04/20 13:42:51;;;;;;;5.80;5.10;;;;;;;;;;5058665;28;20210;-67
2023/04/20 13:45:21;;;;;;;7.00;5.47;;;;;;;;;;5059127;28;20636;-67
2023/04/20 13:47:49;;;;;;;5.53;5.03;;;;;;;;;;5055942;28;20222;-66
2023/04/20 13:50:17;;;;;;;11.80;8.93;;;;;;;;;;5039355;28;20261;-65
2023/04/20 13:52:45;;;;;;;5.53;5.03;;;;;;;;;;5041473;28;20230;-65
2023/04/20 13:55:13;;;;;;;8.07;5.33;;;;;;;;;;5058750;28;20223;-65
2023/04/20 13:57:42;;;;;;;6.67;5.37;;;;;;;;;;5058461;28;20690;-66
2023/04/20 14:00:10;;;;;;;8.63;5.40;;;;;;;;;;5058328;28;20238;-65
2023/04/20 14:02:39;;;;;;;5.23;4.70;;;;;;;;;;5058216;28;20568;-65
2023/04/20 14:05:09;;;;;;;7.27;4.80;;;;;;;;;;5058972;28;20223;-66
2023/04/20 14:07:37;;;;;;;5.40;4.77;;;;;;;;;;5057162;28;20283;-67
2023/04/20 14:10:06;;;;;;;4.73;4.33;;;;;;;;;;5050913;28;20207;-69
2023/04/20 14:12:34;;;;;;;4.97;4.43;;;;;;;;;;5058177;28;20565;-68
2023/04/20 14:15:03;;;;;;;5.17;4.70;;;;;;;;;;5058548;28;20317;-68
2023/04/20 14:17:31;;;;;;;4.97;4.10;;;;;;;;;;5058239;28;20202;-68
2023/04/20 14:20:00;;;;;;;5.87;5.27;;;;;;;;;;5058896;28;20206;-69
2023/04/20 14:22:35;;;;;;;5.80;5.20;;;;;;;;;;5058888;28;20207;-68
2023/04/20 14:25:03;;;;;;;4.97;4.27;;;;;;;;;;5058566;28;20230;-69
2023/04/20 14:27:31;;;;;;;8.13;5.43;;;;;;;;;;5058063;28;20198;-68
2023/04/20 14:29:59;;;;;;;5.00;4.50;;;;;;;;;;5057140;28;20209;-68
2023/04/20 14:32:27;;;;;;;4.90;4.40;;;;;;;;;;5058248;28;20240;-68
2023/04/20 14:34:55;;;;;;;7.33;6.73;;;;;;;;;;5058262;28;20207;-69
2023/04/20 14:37:26;;;;;;;5.40;4.60;;;;;;;;;;5058310;28;20680;-69
2023/04/20 14:39:54;;;;;;;5.80;5.27;;;;;;;;;;5058303;28;20214;-69
2023/04/20 14:42:22;;;;;;;4.60;4.20;;;;;;;;;;5057954;28;20249;-69
2023/04/20 14:44:50;;;;;;;5.83;5.23;;;;;;;;;;5058177;28;20293;-69
2023/04/20 14:47:19;;;;;;;4.97;4.53;;;;;;;;;;5058081;28;20214;-69
2023/04/20 14:49:47;;;;;;;5.00;4.30;;;;;;;;;;5058223;28;20194;-70
2023/04/20 14:52:15;;;;;;;4.60;4.20;;;;;;;;;;5053382;28;20234;-69